This is the latest recevied weather packets stored in our database for station/object OE5OVL-13. If no packets are shown the sender has not sent any weather packets the latest 10 day(s).
| Time | Temp. | Humidity | Pressure | Rain* | Wind** | Luminosity | Snow |
|---|---|---|---|---|---|---|---|
| 1777636796 | 22.22° C | 31% | 731.6 hPa | 0 mm | - | - | - |
| 1777635884 | 22.22° C | 31% | 731.4 hPa | 0 mm | - | - | - |
| 1777634972 | 21.67° C | 33% | 730.7 hPa | 0 mm | - | - | - |
| 1777634061 | 20.56° C | 33% | 729.5 hPa | 0 mm | - | - | - |
| 1777633149 | 20° C | 35% | 728.7 hPa | 0 mm | - | - | - |
| 1777632237 | 18.89° C | 36% | 727.8 hPa | 0 mm | - | - | - |
| 1777631325 | 18.33° C | 35% | 726.9 hPa | 0 mm | - | - | - |
| 1777630414 | 17.22° C | 36% | 725.9 hPa | 0 mm | - | - | - |
| 1777629502 | 17.22° C | 38% | 725.7 hPa | 0 mm | - | - | - |
| 1777628590 | 16.11° C | 40% | 724.6 hPa | 0 mm | - | - | - |
| 1777627678 | 15.56° C | 40% | 724.2 hPa | 0 mm | - | - | - |
| 1777626767 | 15° C | 39% | 723.4 hPa | 0 mm | - | - | - |
| 1777624943 | 14.44° C | 45% | 722.8 hPa | 0 mm | - | - | - |
| 1777624031 | 12.78° C | 47% | 721 hPa | 0 mm | - | - | - |
| 1777623119 | 11.67° C | 45% | 719.7 hPa | 0 mm | - | - | - |
| 1777622208 | 11.11° C | 47% | 718.8 hPa | 0 mm | - | - | - |
| 1777621296 | 10.56° C | 47% | 718 hPa | 0 mm | - | - | - |
| 1777620384 | 10° C | 48% | 717.4 hPa | 0 mm | - | - | - |
| 1777619473 | 9.44° C | 51% | 716.8 hPa | 0 mm | - | - | - |
| 1777618561 | 8.89° C | 54% | 716.1 hPa | 0 mm | - | - | - |
| 1777617649 | 8.33° C | 54% | 715.6 hPa | 0 mm | - | - | - |
| 1777579355 | 10° C | 43% | 717.6 hPa | 0 mm | - | - | - |
| 1777578444 | 10.56° C | 40% | 718.1 hPa | 0 mm | - | - | - |
| 1777577532 | 11.11° C | 38% | 718.9 hPa | 0 mm | - | - | - |
| 1777576620 | 12.22° C | 34% | 720.2 hPa | 0 mm | - | - | - |
* Rain latest hour (hover to see other rain measurements)
** Current wind speed in m/s (hover to see current wind gust speed)